createdAt,value
2022-10-23T00:00:20.710Z,0.00
2022-10-23T00:01:20.657Z,0.00
2022-10-23T00:02:20.693Z,0.00
2022-10-23T00:03:20.647Z,0.00
2022-10-23T00:04:20.655Z,0.00
2022-10-23T00:05:20.649Z,0.00
2022-10-23T00:06:20.603Z,0.00
2022-10-23T00:07:20.645Z,0.00
2022-10-23T00:08:20.596Z,0.00
2022-10-23T00:09:20.562Z,0.00
2022-10-23T00:10:20.596Z,0.00
2022-10-23T00:11:20.573Z,0.00
2022-10-23T00:12:20.549Z,0.00
2022-10-23T00:13:20.513Z,0.00
2022-10-23T00:14:20.510Z,0.00
2022-10-23T00:15:20.510Z,0.00
2022-10-23T00:16:20.488Z,0.00
2022-10-23T00:17:20.474Z,0.00
2022-10-23T00:18:20.475Z,0.00
2022-10-23T00:19:20.438Z,0.00
2022-10-23T00:20:20.449Z,0.00
2022-10-23T00:21:20.417Z,0.00
2022-10-23T00:22:20.407Z,0.00
2022-10-23T00:23:20.382Z,0.00
2022-10-23T00:24:20.374Z,0.00
2022-10-23T00:25:20.388Z,0.00
2022-10-23T00:26:20.375Z,0.00
2022-10-23T00:27:20.349Z,0.00
2022-10-23T00:28:20.331Z,0.00
2022-10-23T00:29:20.323Z,0.00
2022-10-23T00:30:20.331Z,0.00
2022-10-23T00:31:20.303Z,0.00
2022-10-23T00:32:20.371Z,0.00
2022-10-23T00:33:20.272Z,0.00
2022-10-23T00:34:20.260Z,0.00
2022-10-23T00:35:20.270Z,0.00
2022-10-23T00:36:20.251Z,0.00
2022-10-23T00:37:20.248Z,0.00
2022-10-23T00:38:20.230Z,0.00
2022-10-23T00:39:20.221Z,0.00
2022-10-23T00:40:20.200Z,0.00
2022-10-23T00:41:20.204Z,0.00
2022-10-23T00:42:20.183Z,0.00
2022-10-23T00:43:20.151Z,0.00
2022-10-23T00:44:20.150Z,0.00
2022-10-23T00:45:20.150Z,0.00
2022-10-23T00:46:20.114Z,0.00
2022-10-23T00:47:20.107Z,0.00
2022-10-23T00:48:20.119Z,0.00
2022-10-23T00:49:20.081Z,0.00
2022-10-23T00:50:20.102Z,0.00
2022-10-23T00:51:20.087Z,0.00
2022-10-23T00:52:20.059Z,0.00
2022-10-23T00:53:20.040Z,0.00
2022-10-23T00:54:23.829Z,0.00
2022-10-23T00:55:20.015Z,0.00
2022-10-23T00:56:20.022Z,0.00
2022-10-23T00:57:20.034Z,0.00
2022-10-23T00:58:19.995Z,0.00
2022-10-23T00:59:19.976Z,0.00
2022-10-23T01:00:19.962Z,0.00
2022-10-23T01:01:20.044Z,0.00
2022-10-23T01:02:20.046Z,0.00
2022-10-23T01:03:19.923Z,0.00
2022-10-23T01:04:19.945Z,0.00
2022-10-23T01:05:19.887Z,0.00
2022-10-23T01:06:19.903Z,0.00
2022-10-23T01:07:19.888Z,0.00
2022-10-23T01:08:19.870Z,0.00
2022-10-23T01:09:19.852Z,0.00
2022-10-23T01:10:19.856Z,0.00
2022-10-23T01:11:19.861Z,0.00
2022-10-23T01:12:19.827Z,0.00
2022-10-23T01:13:19.811Z,0.00
2022-10-23T01:14:19.798Z,0.00
2022-10-23T01:15:19.794Z,0.00
2022-10-23T01:16:19.802Z,0.00
2022-10-23T01:17:19.768Z,0.00
2022-10-23T01:18:19.761Z,0.00
2022-10-23T01:19:19.740Z,0.00
2022-10-23T01:20:19.725Z,0.00
2022-10-23T01:21:19.726Z,0.00
2022-10-23T01:22:19.725Z,0.00
2022-10-23T01:23:19.688Z,0.00
2022-10-23T01:24:19.690Z,0.00
2022-10-23T01:25:19.665Z,0.00
2022-10-23T01:26:19.650Z,0.00
2022-10-23T01:27:19.664Z,0.00
2022-10-23T01:28:19.634Z,0.00
2022-10-23T01:29:19.617Z,0.00
2022-10-23T01:30:19.626Z,0.00
2022-10-23T01:31:19.605Z,0.00
2022-10-23T01:32:19.607Z,0.00
2022-10-23T01:33:19.615Z,0.00
2022-10-23T01:34:19.567Z,0.00
2022-10-23T01:35:19.538Z,0.00
2022-10-23T01:36:19.535Z,0.00
2022-10-23T01:37:19.543Z,0.00
2022-10-23T01:38:19.531Z,0.00
2022-10-23T01:39:19.507Z,0.00
2022-10-23T01:40:19.510Z,0.00
2022-10-23T01:41:19.484Z,0.00
2022-10-23T01:42:19.495Z,0.00
2022-10-23T01:43:19.458Z,0.00
2022-10-23T01:44:19.447Z,0.00
2022-10-23T01:45:19.431Z,0.00
2022-10-23T01:46:19.422Z,0.00
2022-10-23T01:47:19.407Z,0.00
2022-10-23T01:48:19.423Z,0.00
2022-10-23T01:49:19.388Z,0.00
2022-10-23T01:50:19.377Z,0.00
2022-10-23T01:51:19.358Z,0.00
2022-10-23T01:52:19.357Z,0.00
2022-10-23T01:53:19.347Z,0.00
2022-10-23T01:54:19.344Z,0.00
2022-10-23T01:55:19.314Z,0.00
2022-10-23T01:56:19.299Z,0.00
2022-10-23T01:57:19.289Z,0.00
2022-10-23T01:58:19.284Z,0.00
2022-10-23T01:59:19.299Z,0.00
2022-10-23T02:00:19.270Z,0.00
2022-10-23T02:01:19.318Z,0.00
2022-10-23T02:02:19.283Z,0.00
2022-10-23T02:03:19.225Z,0.00
2022-10-23T02:04:19.228Z,0.00
2022-10-23T02:05:19.205Z,0.00
2022-10-23T02:06:19.213Z,0.00
2022-10-23T02:07:19.180Z,0.00
2022-10-23T02:08:19.168Z,0.00
2022-10-23T02:09:19.160Z,0.00
2022-10-23T02:10:19.155Z,0.00
2022-10-23T02:11:19.136Z,0.00
2022-10-23T02:12:19.144Z,0.00
2022-10-23T02:13:19.115Z,0.00
2022-10-23T02:14:19.099Z,0.00
2022-10-23T02:15:19.091Z,0.00
2022-10-23T02:16:19.075Z,0.00
2022-10-23T02:17:19.050Z,0.00
2022-10-23T02:18:19.058Z,0.00
2022-10-23T02:19:19.030Z,0.00
2022-10-23T02:20:19.029Z,0.00
2022-10-23T02:21:19.019Z,0.00
2022-10-23T02:22:19.031Z,0.00
2022-10-23T02:23:18.990Z,0.00
2022-10-23T02:24:18.979Z,0.00
2022-10-23T02:25:18.960Z,0.00
2022-10-23T02:26:18.958Z,0.00
2022-10-23T02:27:18.952Z,0.00
2022-10-23T02:28:18.941Z,0.00
2022-10-23T02:29:18.922Z,0.00
2022-10-23T02:30:18.910Z,0.00
2022-10-23T02:31:18.906Z,0.00
2022-10-23T02:32:18.913Z,0.00
2022-10-23T02:33:18.878Z,0.00
2022-10-23T02:34:18.859Z,0.00
2022-10-23T02:35:18.867Z,0.00
2022-10-23T02:36:18.836Z,0.00
2022-10-23T02:37:18.937Z,0.00
2022-10-23T02:38:18.811Z,0.00
2022-10-23T02:39:18.817Z,0.00
2022-10-23T02:40:18.793Z,0.00
2022-10-23T02:41:18.780Z,0.00
2022-10-23T02:42:18.760Z,0.00
2022-10-23T02:43:18.797Z,0.00
2022-10-23T02:44:18.750Z,0.00
2022-10-23T02:45:18.752Z,0.00
2022-10-23T02:46:18.718Z,0.00
2022-10-23T02:47:18.711Z,0.00
2022-10-23T02:48:18.729Z,0.00
2022-10-23T02:49:18.695Z,0.00
2022-10-23T02:50:18.681Z,0.00
2022-10-23T02:51:18.664Z,0.00
2022-10-23T02:52:18.643Z,0.00
2022-10-23T02:53:18.663Z,0.00
2022-10-23T02:54:18.628Z,0.00
2022-10-23T02:55:18.614Z,0.00
2022-10-23T02:56:18.605Z,0.00
2022-10-23T02:57:18.611Z,0.00
2022-10-23T02:58:18.594Z,0.00
2022-10-23T02:59:18.573Z,0.00
2022-10-23T03:00:18.640Z,0.00
2022-10-23T03:01:18.665Z,0.00
2022-10-23T03:02:18.608Z,0.00
2022-10-23T03:03:18.539Z,0.00
2022-10-23T03:04:18.507Z,0.00
2022-10-23T03:05:18.505Z,0.00
2022-10-23T03:06:18.488Z,0.00
2022-10-23T03:07:18.491Z,0.00
2022-10-23T03:08:18.473Z,0.00
2022-10-23T03:09:18.466Z,0.00
2022-10-23T03:10:18.441Z,0.00
2022-10-23T03:11:18.449Z,0.00
2022-10-23T03:12:18.425Z,0.00
2022-10-23T03:13:18.426Z,0.00
2022-10-23T03:14:18.398Z,0.00
2022-10-23T03:15:18.405Z,0.00
2022-10-23T03:16:18.382Z,0.00
2022-10-23T03:17:18.360Z,0.00
2022-10-23T03:18:18.368Z,0.00
2022-10-23T03:19:18.362Z,0.00
2022-10-23T03:20:18.319Z,0.00
2022-10-23T03:21:18.327Z,0.00
2022-10-23T03:22:18.312Z,0.00
2022-10-23T03:23:18.301Z,0.00
2022-10-23T03:24:18.336Z,0.00
2022-10-23T03:25:18.284Z,0.00
2022-10-23T03:26:18.285Z,0.00
2022-10-23T03:27:18.278Z,0.00
2022-10-23T03:28:18.240Z,0.00
2022-10-23T03:29:18.237Z,0.00
2022-10-23T03:30:18.208Z,0.00
2022-10-23T03:31:18.193Z,0.00
2022-10-23T03:32:18.185Z,0.00
2022-10-23T03:33:18.173Z,0.00
2022-10-23T03:34:18.179Z,0.00
2022-10-23T03:35:18.173Z,0.00
2022-10-23T03:36:18.139Z,0.00
2022-10-23T03:37:18.137Z,0.00
2022-10-23T03:38:18.119Z,0.00
2022-10-23T03:39:18.120Z,0.00
2022-10-23T03:40:18.110Z,0.00
2022-10-23T03:41:18.079Z,0.00
2022-10-23T03:42:18.066Z,0.00
2022-10-23T03:43:18.081Z,0.00
2022-10-23T03:44:18.050Z,0.00
2022-10-23T03:45:18.037Z,0.00
2022-10-23T03:46:18.043Z,0.00
2022-10-23T03:47:18.013Z,0.00
2022-10-23T03:48:18.003Z,0.00
2022-10-23T03:49:17.991Z,0.00
2022-10-23T03:50:17.984Z,0.00
2022-10-23T03:51:17.975Z,0.00
2022-10-23T03:52:18.000Z,0.00
2022-10-23T03:53:17.952Z,0.00
2022-10-23T03:54:17.933Z,0.00
2022-10-23T03:55:17.921Z,0.00
2022-10-23T03:56:17.891Z,0.00
2022-10-23T03:57:17.924Z,0.00
2022-10-23T03:58:17.904Z,0.00
2022-10-23T03:59:17.870Z,0.00
2022-10-23T04:00:17.876Z,0.00
2022-10-23T04:01:17.902Z,0.00
2022-10-23T04:02:17.878Z,0.00
2022-10-23T04:03:17.856Z,0.00
2022-10-23T04:04:17.840Z,0.00
2022-10-23T04:05:17.811Z,0.00
2022-10-23T04:06:17.786Z,0.00
2022-10-23T04:07:17.787Z,0.00
2022-10-23T04:08:20.087Z,0.00
2022-10-23T04:09:17.761Z,0.00
2022-10-23T04:10:17.757Z,0.00
2022-10-23T04:11:17.743Z,0.00
2022-10-23T04:12:17.733Z,0.00
2022-10-23T04:13:17.713Z,0.00
2022-10-23T04:14:17.703Z,0.00
2022-10-23T04:15:17.684Z,0.00
2022-10-23T04:16:17.674Z,0.00
2022-10-23T04:17:17.744Z,0.00
2022-10-23T04:18:17.674Z,0.00
2022-10-23T04:19:17.652Z,0.00
2022-10-23T04:20:17.626Z,0.00
2022-10-23T04:21:17.626Z,0.00
2022-10-23T04:22:17.603Z,0.00
2022-10-23T04:23:17.599Z,0.00
2022-10-23T04:24:17.601Z,0.00
2022-10-23T04:25:17.580Z,0.00
2022-10-23T04:26:17.569Z,0.00
2022-10-23T04:27:17.544Z,0.00
2022-10-23T04:28:17.536Z,0.00
2022-10-23T04:29:17.596Z,0.00
2022-10-23T04:30:17.535Z,0.00
2022-10-23T04:31:17.501Z,0.00
2022-10-23T04:32:17.498Z,0.00
2022-10-23T04:33:17.486Z,0.00
2022-10-23T04:34:17.467Z,0.00
2022-10-23T04:35:17.466Z,0.00
2022-10-23T04:36:17.452Z,0.00
2022-10-23T04:37:17.433Z,0.00
2022-10-23T04:38:17.415Z,0.00
2022-10-23T04:39:17.424Z,0.00
2022-10-23T04:40:17.416Z,0.00
2022-10-23T04:41:17.386Z,0.00
2022-10-23T04:42:17.432Z,0.00
2022-10-23T04:43:17.376Z,0.00
2022-10-23T04:44:17.345Z,0.00
2022-10-23T04:45:17.348Z,0.00
2022-10-23T04:46:17.336Z,0.00
2022-10-23T04:47:17.318Z,0.00
2022-10-23T04:48:17.304Z,0.00
2022-10-23T04:49:17.318Z,0.00
2022-10-23T04:50:17.282Z,0.00
2022-10-23T04:51:17.290Z,0.00
2022-10-23T04:52:17.272Z,0.00
2022-10-23T04:53:17.265Z,0.00
2022-10-23T04:54:17.236Z,0.00
2022-10-23T04:55:17.220Z,0.00
2022-10-23T04:56:17.222Z,0.00
2022-10-23T04:57:17.215Z,0.00
2022-10-23T04:58:17.205Z,0.00
2022-10-23T04:59:17.171Z,0.00
2022-10-23T05:00:17.185Z,0.00
2022-10-23T05:01:17.293Z,0.00
2022-10-23T05:02:17.156Z,0.00
2022-10-23T05:03:17.136Z,0.00
2022-10-23T05:04:17.115Z,0.00
2022-10-23T05:05:17.116Z,0.00
2022-10-23T05:06:17.087Z,0.00
2022-10-23T05:07:17.158Z,0.00
2022-10-23T05:08:18.184Z,0.00
2022-10-23T05:09:17.066Z,0.00
2022-10-23T05:10:17.038Z,0.00
2022-10-23T05:11:17.039Z,0.00
2022-10-23T05:12:17.041Z,0.00
2022-10-23T05:13:17.046Z,0.00
2022-10-23T05:14:20.605Z,0.00
2022-10-23T05:15:18.006Z,0.00
2022-10-23T05:16:16.982Z,0.00
2022-10-23T05:17:16.961Z,0.00
2022-10-23T05:18:16.964Z,0.00
2022-10-23T05:19:19.604Z,0.00
2022-10-23T05:20:17.975Z,0.00
2022-10-23T05:21:16.944Z,0.00
2022-10-23T05:22:16.909Z,0.00
2022-10-23T05:23:16.908Z,0.00
2022-10-23T05:24:16.901Z,0.00
2022-10-23T05:25:16.884Z,0.00
2022-10-23T05:26:16.864Z,0.00
2022-10-23T05:27:16.851Z,0.00
2022-10-23T05:28:16.847Z,0.00
2022-10-23T05:29:16.839Z,0.00
2022-10-23T05:30:16.820Z,0.00
2022-10-23T05:31:16.812Z,0.00
2022-10-23T05:32:16.874Z,0.00
2022-10-23T05:33:16.792Z,0.00
2022-10-23T05:34:16.780Z,0.00
2022-10-23T05:35:16.755Z,0.00
2022-10-23T05:36:16.740Z,0.00
2022-10-23T05:37:16.746Z,0.00
2022-10-23T05:38:16.721Z,0.00
2022-10-23T05:39:16.733Z,0.00
2022-10-23T05:40:16.699Z,0.00
2022-10-23T05:41:16.709Z,0.00
2022-10-23T05:42:16.672Z,0.00
2022-10-23T05:43:16.681Z,0.00
2022-10-23T05:44:16.663Z,4.00
2022-10-23T05:45:16.651Z,0.00
2022-10-23T05:46:16.619Z,4.00
2022-10-23T05:47:16.618Z,4.00
2022-10-23T05:48:29.960Z,4.00
2022-10-23T05:49:17.639Z,4.00
2022-10-23T05:50:16.594Z,4.00
2022-10-23T05:51:16.582Z,4.00
2022-10-23T05:52:16.562Z,4.00
2022-10-23T05:53:16.563Z,8.00
2022-10-23T05:54:16.550Z,8.00
2022-10-23T05:55:16.541Z,8.00
2022-10-23T05:56:16.512Z,8.00
2022-10-23T05:58:16.498Z,12.00
2022-10-23T05:59:20.422Z,12.00
2022-10-23T06:00:17.486Z,16.00
2022-10-23T06:01:16.480Z,16.00
2022-10-23T06:02:16.483Z,20.00
2022-10-23T06:03:16.432Z,20.00
2022-10-23T06:04:16.442Z,20.00
2022-10-23T06:05:16.428Z,24.00
2022-10-23T06:06:16.427Z,24.00
2022-10-23T06:07:16.401Z,28.00
2022-10-23T06:08:16.374Z,28.00
2022-10-23T06:09:16.375Z,28.00
2022-10-23T06:10:16.351Z,36.00
2022-10-23T06:11:16.372Z,36.00
2022-10-23T06:12:16.329Z,40.00
2022-10-23T06:13:16.329Z,48.00
2022-10-23T06:14:16.294Z,48.00
2022-10-23T06:15:16.307Z,52.00
2022-10-23T06:16:16.301Z,56.00
2022-10-23T06:17:16.290Z,64.00
2022-10-23T06:18:16.254Z,72.00
2022-10-23T06:19:16.253Z,80.00
2022-10-23T06:20:16.251Z,88.00
2022-10-23T06:21:16.241Z,88.00
2022-10-23T06:22:16.271Z,92.00
2022-10-23T06:23:16.215Z,100.00
2022-10-23T06:24:16.185Z,108.00
2022-10-23T06:25:16.185Z,116.00
2022-10-23T06:26:16.161Z,124.00
2022-10-23T06:27:16.176Z,132.00
2022-10-23T06:28:18.314Z,144.00
2022-10-23T06:29:16.133Z,160.00
2022-10-23T06:30:16.125Z,176.00
2022-10-23T06:31:16.116Z,192.00
2022-10-23T06:32:16.115Z,208.00
2022-10-23T06:33:16.129Z,228.00
2022-10-23T06:34:16.064Z,252.00
2022-10-23T06:35:16.055Z,276.00
2022-10-23T06:36:16.054Z,292.00
2022-10-23T06:37:16.058Z,304.00
2022-10-23T06:38:16.033Z,316.00
2022-10-23T06:39:16.019Z,328.00
2022-10-23T06:40:16.012Z,340.00
2022-10-23T06:41:15.994Z,356.00
2022-10-23T06:42:15.996Z,368.00
2022-10-23T06:43:15.988Z,388.00
2022-10-23T06:44:15.975Z,404.00
2022-10-23T06:45:15.947Z,420.00
2022-10-23T06:46:15.928Z,448.00
2022-10-23T06:48:15.916Z,464.00
2022-10-23T06:49:15.904Z,476.00
2022-10-23T06:50:15.891Z,496.00
2022-10-23T06:51:15.885Z,508.00
2022-10-23T06:52:41.832Z,552.00
2022-10-23T06:53:17.124Z,548.00
2022-10-23T06:54:15.840Z,560.00
2022-10-23T06:55:15.850Z,556.00
2022-10-23T06:56:15.837Z,560.00
2022-10-23T06:57:15.815Z,568.00
2022-10-23T06:58:15.806Z,592.00
2022-10-23T06:59:15.807Z,612.00
2022-10-23T07:00:15.779Z,624.00
2022-10-23T07:01:15.850Z,652.00
2022-10-23T07:02:15.753Z,668.00
2022-10-23T07:03:15.750Z,680.00
2022-10-23T07:04:15.749Z,708.00
2022-10-23T07:05:15.752Z,784.00
2022-10-23T07:06:15.751Z,832.00
2022-10-23T07:07:15.689Z,852.00
2022-10-23T07:08:15.710Z,936.00
2022-10-23T07:09:15.709Z,1072.00
2022-10-23T07:10:15.851Z,1148.00
2022-10-23T07:11:15.645Z,1296.00
2022-10-23T07:12:15.628Z,1844.00
2022-10-23T07:13:15.630Z,1536.00
2022-10-23T07:14:15.626Z,1864.00
2022-10-23T07:15:15.606Z,2740.00
2022-10-23T07:16:15.591Z,3952.00
2022-10-23T07:17:15.571Z,4304.00
2022-10-23T07:18:15.562Z,4524.00
2022-10-23T07:19:15.571Z,4508.00
2022-10-23T07:20:15.545Z,4640.00
2022-10-23T07:21:15.530Z,4500.00
2022-10-23T07:22:16.104Z,3808.00
2022-10-23T07:23:15.520Z,3440.00
2022-10-23T07:24:15.511Z,4552.00
2022-10-23T07:25:15.487Z,4908.00
2022-10-23T07:26:15.499Z,5032.00
2022-10-23T07:27:15.457Z,5040.00
2022-10-23T07:28:15.457Z,4992.00
2022-10-23T07:29:15.472Z,4988.00
2022-10-23T07:30:15.423Z,5492.00
2022-10-23T07:31:15.424Z,5464.00
2022-10-23T07:32:15.421Z,5396.00
2022-10-23T07:33:15.388Z,5252.00
2022-10-23T07:34:15.407Z,5136.00
2022-10-23T07:36:15.359Z,5032.00
2022-10-23T07:37:15.346Z,4856.00
2022-10-23T07:38:15.331Z,4892.00
2022-10-23T07:39:15.332Z,4528.00
2022-10-23T07:40:15.321Z,4408.00
2022-10-23T07:41:15.294Z,4196.00
2022-10-23T07:42:15.305Z,4840.00
2022-10-23T07:43:15.283Z,4820.00
2022-10-23T07:44:15.278Z,4392.00
2022-10-23T07:45:15.281Z,4564.00
2022-10-23T07:46:15.235Z,4252.00
2022-10-23T07:47:15.230Z,4424.00
2022-10-23T07:48:15.215Z,4752.00
2022-10-23T07:49:15.200Z,5088.00
2022-10-23T07:50:15.214Z,5036.00
2022-10-23T07:51:15.176Z,5688.00
2022-10-23T07:52:15.175Z,6000.00
2022-10-23T07:53:15.175Z,5884.00
2022-10-23T07:54:15.139Z,6088.00
2022-10-23T07:55:15.137Z,6032.00
2022-10-23T07:56:15.139Z,6124.00
2022-10-23T07:57:15.096Z,3944.00
2022-10-23T07:58:15.115Z,1740.00
2022-10-23T07:59:15.089Z,2704.00
2022-10-23T08:00:15.161Z,4276.00
2022-10-23T08:01:15.145Z,2964.00
2022-10-23T08:02:15.095Z,1968.00
2022-10-23T08:03:15.036Z,3456.00
2022-10-23T08:04:15.019Z,5224.00
2022-10-23T08:05:15.018Z,5564.00
2022-10-23T08:06:15.029Z,5964.00
2022-10-23T08:07:15.003Z,6308.00
2022-10-23T08:08:15.013Z,6244.00
2022-10-23T08:09:14.979Z,5272.00
2022-10-23T08:10:14.951Z,4508.00
2022-10-23T08:11:14.972Z,4220.00
2022-10-23T08:12:14.952Z,3800.00
2022-10-23T08:13:14.943Z,3844.00
2022-10-23T08:14:14.918Z,3484.00
2022-10-23T08:15:14.904Z,3104.00
2022-10-23T08:16:14.896Z,3248.00
2022-10-23T08:17:14.882Z,3376.00
2022-10-23T08:18:14.908Z,1392.00
2022-10-23T08:19:14.845Z,1272.00
2022-10-23T08:20:14.849Z,2608.00
2022-10-23T08:21:14.843Z,2816.00
2022-10-23T08:22:14.818Z,2572.00
2022-10-23T08:23:14.823Z,2212.00
2022-10-23T08:24:14.808Z,2352.00
2022-10-23T08:25:14.839Z,2036.00
2022-10-23T08:26:14.771Z,2016.00
2022-10-23T08:27:14.835Z,1612.00
2022-10-23T08:28:14.766Z,1248.00
2022-10-23T08:29:14.736Z,1160.00
2022-10-23T08:30:14.724Z,1628.00
2022-10-23T08:31:14.714Z,1852.00
2022-10-23T08:32:14.702Z,1896.00
2022-10-23T08:33:14.705Z,1588.00
2022-10-23T08:34:14.699Z,1688.00
2022-10-23T08:35:14.662Z,1640.00
2022-10-23T08:36:14.653Z,1588.00
2022-10-23T08:37:14.642Z,992.00
2022-10-23T08:38:14.672Z,1416.00
2022-10-23T08:39:14.614Z,1448.00
2022-10-23T08:40:14.614Z,1452.00
2022-10-23T08:41:14.615Z,1452.00
2022-10-23T08:42:14.597Z,1368.00
2022-10-23T08:43:14.591Z,1360.00
2022-10-23T08:44:14.637Z,1284.00
2022-10-23T08:45:14.564Z,1272.00
2022-10-23T08:46:14.558Z,1344.00
2022-10-23T08:47:14.540Z,980.00
2022-10-23T08:48:14.527Z,804.00
2022-10-23T08:49:14.508Z,760.00
2022-10-23T08:50:14.578Z,748.00
2022-10-23T08:51:14.515Z,740.00
2022-10-23T08:52:14.496Z,736.00
2022-10-23T08:53:14.534Z,732.00
2022-10-23T08:54:14.481Z,708.00
2022-10-23T08:55:14.448Z,696.00
2022-10-23T08:56:14.440Z,704.00
2022-10-23T08:57:14.435Z,732.00
2022-10-23T08:58:14.495Z,736.00
2022-10-23T08:59:14.393Z,728.00
2022-10-23T09:00:14.409Z,728.00
2022-10-23T09:01:14.461Z,732.00
2022-10-23T09:02:14.668Z,728.00
2022-10-23T09:03:14.358Z,752.00
2022-10-23T09:04:14.347Z,780.00
2022-10-23T09:05:14.329Z,800.00
2022-10-23T09:06:14.308Z,804.00
2022-10-23T09:07:14.292Z,808.00
2022-10-23T09:08:14.291Z,796.00
2022-10-23T09:09:14.269Z,812.00
2022-10-23T09:10:14.299Z,788.00
2022-10-23T09:11:14.243Z,752.00
2022-10-23T09:12:14.244Z,736.00
2022-10-23T09:13:14.266Z,716.00
2022-10-23T09:14:14.209Z,696.00
2022-10-23T09:15:14.251Z,676.00
2022-10-23T09:16:14.220Z,660.00
2022-10-23T09:18:14.167Z,720.00
2022-10-23T09:19:14.162Z,780.00
2022-10-23T09:20:14.144Z,788.00
2022-10-23T09:21:14.152Z,800.00
2022-10-23T09:22:14.131Z,840.00
2022-10-23T09:23:14.130Z,892.00
2022-10-23T09:24:14.119Z,928.00
2022-10-23T09:25:14.093Z,956.00
2022-10-23T09:26:14.103Z,976.00
2022-10-23T09:27:14.063Z,952.00
2022-10-23T09:28:14.041Z,952.00
2022-10-23T09:29:14.031Z,948.00
2022-10-23T09:30:14.051Z,952.00
2022-10-23T09:31:14.035Z,956.00
2022-10-23T09:32:13.988Z,920.00
2022-10-23T09:33:14.045Z,908.00
2022-10-23T09:34:13.979Z,924.00
2022-10-23T09:35:13.971Z,956.00
2022-10-23T09:36:13.985Z,988.00
2022-10-23T09:37:13.972Z,1028.00
2022-10-23T09:38:13.948Z,1024.00
2022-10-23T09:39:13.939Z,988.00
2022-10-23T09:40:13.916Z,948.00
2022-10-23T09:41:13.919Z,896.00
2022-10-23T09:42:13.879Z,852.00
2022-10-23T09:43:13.878Z,824.00
2022-10-23T09:44:13.859Z,800.00
2022-10-23T09:45:13.856Z,804.00
2022-10-23T09:46:13.846Z,836.00
2022-10-23T09:47:13.862Z,860.00
2022-10-23T09:48:13.846Z,864.00
2022-10-23T09:49:13.809Z,864.00
2022-10-23T09:50:13.786Z,840.00
2022-10-23T09:51:13.774Z,836.00
2022-10-23T09:52:13.814Z,836.00
2022-10-23T09:53:13.766Z,824.00
2022-10-23T09:54:13.738Z,804.00
2022-10-23T09:55:13.730Z,800.00
2022-10-23T09:56:13.716Z,788.00
2022-10-23T09:57:13.722Z,772.00
2022-10-23T09:58:13.702Z,772.00
2022-10-23T09:59:13.679Z,792.00
2022-10-23T10:00:13.678Z,796.00
2022-10-23T10:01:13.755Z,780.00
2022-10-23T10:02:13.812Z,768.00
2022-10-23T10:03:13.667Z,724.00
2022-10-23T10:04:13.661Z,692.00
2022-10-23T10:05:13.608Z,692.00
2022-10-23T10:06:13.596Z,688.00
2022-10-23T10:07:13.579Z,688.00
2022-10-23T10:08:13.588Z,704.00
2022-10-23T10:09:13.596Z,700.00
2022-10-23T10:10:13.547Z,696.00
2022-10-23T10:11:13.529Z,672.00
2022-10-23T10:12:13.529Z,640.00
2022-10-23T10:13:15.048Z,628.00
2022-10-23T10:14:13.629Z,608.00
2022-10-23T10:15:13.501Z,588.00
2022-10-23T10:16:13.879Z,592.00
2022-10-23T10:17:13.461Z,596.00
2022-10-23T10:18:13.457Z,592.00
2022-10-23T10:19:13.475Z,612.00
2022-10-23T10:20:13.439Z,644.00
2022-10-23T10:21:13.421Z,640.00
2022-10-23T10:22:13.421Z,676.00
2022-10-23T10:23:13.393Z,700.00
2022-10-23T10:24:13.391Z,724.00
2022-10-23T10:25:13.392Z,748.00
2022-10-23T10:26:13.384Z,736.00
2022-10-23T10:27:13.371Z,716.00
2022-10-23T10:28:13.353Z,696.00
2022-10-23T10:29:13.321Z,660.00
2022-10-23T10:30:13.354Z,660.00
2022-10-23T10:31:13.311Z,624.00
2022-10-23T10:32:13.295Z,592.00
2022-10-23T10:33:13.274Z,560.00
2022-10-23T10:34:13.269Z,532.00
2022-10-23T10:35:13.255Z,520.00
2022-10-23T10:36:13.302Z,516.00
2022-10-23T10:37:13.236Z,524.00
2022-10-23T10:38:13.236Z,520.00
2022-10-23T10:39:13.221Z,496.00
2022-10-23T10:40:13.212Z,488.00
2022-10-23T10:41:13.211Z,464.00
2022-10-23T10:42:13.192Z,420.00
2022-10-23T10:43:13.161Z,388.00
2022-10-23T10:44:13.169Z,376.00
2022-10-23T10:45:13.134Z,360.00
2022-10-23T10:46:13.148Z,344.00
2022-10-23T10:47:14.920Z,356.00
2022-10-23T10:48:13.125Z,372.00
2022-10-23T10:49:13.086Z,396.00
2022-10-23T10:50:13.079Z,416.00
2022-10-23T10:51:13.076Z,436.00
2022-10-23T10:52:13.080Z,448.00
2022-10-23T10:53:13.053Z,464.00
2022-10-23T10:54:13.036Z,476.00
2022-10-23T10:55:13.014Z,468.00
2022-10-23T10:56:13.021Z,448.00
2022-10-23T10:57:13.031Z,436.00
2022-10-23T10:58:12.995Z,432.00
2022-10-23T10:59:13.019Z,424.00
2022-10-23T11:00:12.980Z,440.00
2022-10-23T11:01:13.002Z,460.00
2022-10-23T11:02:13.031Z,428.00
2022-10-23T11:03:12.952Z,404.00
2022-10-23T11:04:12.931Z,384.00
2022-10-23T11:05:12.929Z,376.00
2022-10-23T11:06:12.913Z,384.00
2022-10-23T11:07:12.918Z,400.00
2022-10-23T11:08:12.887Z,428.00
2022-10-23T11:09:20.221Z,436.00
2022-10-23T11:10:13.850Z,452.00
2022-10-23T11:11:12.856Z,488.00
2022-10-23T11:12:12.829Z,536.00
2022-10-23T11:13:12.818Z,596.00
2022-10-23T11:14:12.822Z,668.00
2022-10-23T11:15:12.810Z,740.00
2022-10-23T11:16:12.771Z,788.00
2022-10-23T11:17:12.765Z,812.00
2022-10-23T11:18:12.747Z,804.00
2022-10-23T11:19:14.033Z,760.00
2022-10-23T11:20:12.726Z,752.00
2022-10-23T11:21:12.733Z,740.00
2022-10-23T11:22:12.710Z,724.00
2022-10-23T11:23:12.701Z,728.00
2022-10-23T11:24:12.689Z,728.00
2022-10-23T11:25:12.689Z,728.00
2022-10-23T11:26:15.178Z,732.00
2022-10-23T11:27:12.651Z,752.00
2022-10-23T11:28:12.639Z,768.00
2022-10-23T11:29:12.653Z,788.00
2022-10-23T11:30:12.620Z,836.00
2022-10-23T11:31:12.600Z,860.00
2022-10-23T11:32:12.609Z,884.00
2022-10-23T11:33:12.609Z,968.00
2022-10-23T11:34:12.615Z,980.00
2022-10-23T11:35:12.574Z,988.00
2022-10-23T11:36:12.544Z,972.00
2022-10-23T11:37:12.536Z,964.00
2022-10-23T11:38:12.527Z,948.00
2022-10-23T11:39:12.517Z,980.00
2022-10-23T11:40:12.603Z,980.00
2022-10-23T11:41:12.487Z,944.00
2022-10-23T11:42:12.468Z,1008.00
2022-10-23T11:43:12.474Z,1024.00
2022-10-23T11:44:12.447Z,1044.00
2022-10-23T11:45:12.494Z,1044.00
2022-10-23T11:46:12.440Z,988.00
2022-10-23T11:47:12.420Z,984.00
2022-10-23T11:48:12.404Z,952.00
2022-10-23T11:50:12.427Z,964.00
2022-10-23T11:51:12.370Z,972.00
2022-10-23T11:52:12.362Z,1000.00
2022-10-23T11:53:14.285Z,988.00
2022-10-23T11:54:12.344Z,1000.00
2022-10-23T11:55:12.351Z,996.00
2022-10-23T11:56:12.316Z,992.00
2022-10-23T11:57:12.295Z,992.00
2022-10-23T11:58:12.320Z,1008.00
2022-10-23T11:59:12.295Z,996.00
2022-10-23T12:00:12.327Z,988.00
2022-10-23T12:01:12.302Z,976.00
2022-10-23T12:02:12.255Z,976.00
2022-10-23T12:03:12.224Z,984.00
2022-10-23T12:04:12.210Z,1008.00
2022-10-23T12:05:12.225Z,1032.00
2022-10-23T12:06:12.192Z,1040.00
2022-10-23T12:07:12.200Z,1032.00
2022-10-23T12:08:12.196Z,1032.00
2022-10-23T12:09:12.211Z,980.00
2022-10-23T12:10:12.198Z,1024.00
2022-10-23T12:11:12.148Z,1024.00
2022-10-23T12:12:12.148Z,1032.00
2022-10-23T12:13:12.110Z,1040.00
2022-10-23T12:15:12.090Z,1048.00
2022-10-23T12:16:12.080Z,1052.00
2022-10-23T12:17:12.063Z,1040.00
2022-10-23T12:18:12.080Z,1028.00
2022-10-23T12:19:12.036Z,1016.00
2022-10-23T12:20:12.030Z,1012.00
2022-10-23T12:21:12.038Z,996.00
2022-10-23T12:22:11.996Z,980.00
2022-10-23T12:23:12.029Z,960.00
2022-10-23T12:24:12.003Z,944.00
2022-10-23T12:25:11.971Z,944.00
2022-10-23T12:26:11.960Z,932.00
2022-10-23T12:27:11.959Z,932.00
2022-10-23T12:28:11.972Z,924.00
2022-10-23T12:29:11.933Z,920.00
2022-10-23T12:30:11.910Z,888.00
2022-10-23T12:31:11.914Z,852.00
2022-10-23T12:32:11.884Z,848.00
2022-10-23T12:33:11.888Z,856.00
2022-10-23T12:34:11.920Z,872.00
2022-10-23T12:35:11.851Z,880.00
2022-10-23T12:36:11.841Z,876.00
2022-10-23T12:37:11.832Z,908.00
2022-10-23T12:38:11.820Z,912.00
2022-10-23T12:39:11.824Z,920.00
2022-10-23T12:40:11.813Z,936.00
2022-10-23T12:41:11.804Z,948.00
2022-10-23T12:42:11.761Z,984.00
2022-10-23T12:43:11.774Z,1000.00
2022-10-23T12:44:11.756Z,1000.00
2022-10-23T12:45:11.744Z,984.00
2022-10-23T12:46:14.139Z,964.00
2022-10-23T12:47:12.725Z,952.00
2022-10-23T12:48:11.697Z,944.00
2022-10-23T12:49:11.686Z,940.00
2022-10-23T12:50:11.694Z,920.00
2022-10-23T12:51:11.660Z,920.00
2022-10-23T12:52:11.643Z,896.00
2022-10-23T12:53:11.646Z,904.00